logo
Rechercher aéroport 
image banner adimage banner adimage banner ad
image banner ad

26VT - Brattleboro Meml Hospital

Situé à Brattleboro, United States

ICAO - 26VT, IATA -

Données fournies par Airmate  

Information générale

Coordonnées: N42°50'38" W72°34'1"
Élévation : 416 feet MSL.
 
Voir autres Aéroports à Vermont

Données opérationnelles

Special qualification required
Heure actuelle UTC:
Heure actuelle locale:
Météo à : KEEN - Dillant/Hopkins ( 25 km )
METAR: KEEN 171956Z AUTO 23008KT 10SM CLR 27/18 A3010 RMK AO2 SLP194 T02720183 $
Voir NOTAMs / SUP AIP / TFR affectant cet aéroport [VIEW]
Fréquences de communication: [VIEW]

Pistes:

Coordonnées de l'aéroport

Adresse: Brattleboro United States

Vue satellite de 26VT